Time;durP1;ratioP1;P1;durP2;ratioP2;P2;SDS_P1;SDS_P2;PMS_P1;PMS_P2;Temp;Humidity;BMP_temperature;BMP_pressure;BME280_temperature;BME280_humidity;BME280_pressure;Samples;Min_cycle;Max_cycle;Signal;HPM_P1;HPM_P2
2022/10/31 13:52:51;;;;;;;13.88;6.63;;;22.80;68.60;;;;;;5133891;27;20366;-75
2022/10/31 13:55:42;;;;;;;12.00;7.13;;;23.00;69.60;;;;;;5129285;28;20036;-76
2022/10/31 13:58:29;;;;;;;13.57;6.95;;;23.10;69.10;;;;;;5101780;28;20118;-76
2022/10/31 14:01:05;;;;;;;39.00;8.63;;;23.20;70.20;;;;;;5111136;28;20031;-75
2022/10/31 14:03:35;;;;;;;20.42;7.25;;;23.20;70.40;;;;;;5121768;28;20051;-76
2022/10/31 14:06:01;;;;;;;;;;;23.20;69.40;;;;;;5093149;28;20031;-76
2022/10/31 14:08:28;;;;;;;20.85;7.43;;;23.20;69.40;;;;;;5123094;28;19918;-75
2022/10/31 14:10:55;;;;;;;22.90;7.60;;;23.20;70.10;;;;;;5111781;27;20108;-76
2022/10/31 14:13:27;;;;;;;24.60;7.75;;;23.20;70.50;;;;;;5149567;27;20433;-76
2022/10/31 14:16:02;;;;;;;22.13;7.47;;;23.20;70.30;;;;;;5131193;27;20476;-75
2022/10/31 14:18:41;;;;;;;31.52;7.65;;;23.10;70.20;;;;;;5149796;27;20037;-76
2022/10/31 14:21:16;;;;;;;20.80;7.88;;;23.20;70.40;;;;;;5149834;27;20057;-78
2022/10/31 14:23:42;;;;;;;32.03;8.77;;;23.20;70.60;;;;;;5125837;27;20080;-78
2022/10/31 14:26:25;;;;;;;23.33;9.80;;;23.20;70.10;;;;;;5125978;28;20579;-78
2022/10/31 14:28:55;;;;;;;26.63;14.65;;;23.10;69.70;;;;;;5123848;27;20028;-76
2022/10/31 14:31:37;;;;;;;29.45;17.05;;;23.00;68.70;;;;;;5098470;27;20428;-75
2022/10/31 14:34:22;;;;;;;28.33;15.68;;;23.00;67.80;;;;;;5111171;28;20490;-76
2022/10/31 14:37:15;;;;;;;28.75;16.55;;;23.00;68.40;;;;;;5128800;28;20106;-76
2022/10/31 14:39:40;;;;;;;34.55;15.95;;;23.00;68.50;;;;;;5127233;28;20080;-77
2022/10/31 14:42:09;;;;;;;37.63;17.67;;;23.00;68.40;;;;;;5125582;27;20035;-76
2022/10/31 14:45:09;;;;;;;26.40;15.23;;;23.00;67.90;;;;;;5106560;28;20031;-76
2022/10/31 14:47:47;;;;;;;23.17;13.57;;;23.00;68.10;;;;;;5108227;28;20452;-76
2022/10/31 14:50:28;;;;;;;24.58;13.40;;;23.10;68.30;;;;;;5108098;28;20032;-76
2022/10/31 14:52:57;;;;;;;24.98;13.52;;;23.00;68.40;;;;;;5098007;28;20035;-76
2022/10/31 14:55:24;;;;;;;24.52;13.25;;;23.10;68.50;;;;;;5093163;28;20378;-76
2022/10/31 14:57:55;;;;;;;22.67;12.82;;;23.00;68.60;;;;;;5094056;28;20050;-76
2022/10/31 15:00:24;;;;;;;24.48;12.23;;;23.00;68.60;;;;;;5093071;28;20042;-77
2022/10/31 15:03:21;;;;;;;21.48;12.10;;;23.00;68.70;;;;;;5094204;28;20028;-76
2022/10/31 15:05:53;;;;;;;23.77;11.95;;;23.10;68.80;;;;;;5093131;28;20028;-76
2022/10/31 15:08:33;;;;;;;22.02;11.93;;;23.10;68.80;;;;;;5093114;28;20078;-76
2022/10/31 15:11:03;;;;;;;21.75;11.23;;;23.00;68.80;;;;;;5094106;28;20039;-76
2022/10/31 15:13:29;;;;;;;21.13;11.05;;;23.00;68.80;;;;;;5093927;28;20034;-76
2022/10/31 15:15:55;;;;;;;20.80;11.80;;;23.00;68.80;;;;;;5094085;28;20107;-76
2022/10/31 15:18:27;;;;;;;19.77;11.43;;;23.10;68.90;;;;;;5094086;28;20052;-76
2022/10/31 15:20:56;;;;;;;18.70;11.20;;;23.10;68.90;;;;;;5092664;28;20455;-76
2022/10/31 15:23:29;;;;;;;20.13;10.85;;;23.00;68.80;;;;;;5092287;28;20465;-76
2022/10/31 15:26:03;;;;;;;18.10;11.77;;;23.10;68.90;;;;;;5092543;28;20031;-76
2022/10/31 15:28:30;;;;;;;20.95;10.85;;;23.10;68.90;;;;;;5094250;28;20064;-76
2022/10/31 15:30:58;;;;;;;18.75;11.07;;;23.10;69.00;;;;;;5092405;28;20040;-76
2022/10/31 15:33:29;;;;;;;19.73;10.02;;;23.10;69.00;;;;;;5092370;28;20460;-77
2022/10/31 15:36:01;;;;;;;21.98;11.77;;;23.00;68.90;;;;;;5093642;28;20028;-76
2022/10/31 15:38:28;;;;;;;17.77;10.93;;;23.00;68.90;;;;;;5075965;28;20055;-76
2022/10/31 15:41:17;;;;;;;19.23;10.68;;;23.10;69.00;;;;;;5092125;28;20093;-76
2022/10/31 15:43:44;;;;;;;17.65;10.63;;;23.10;69.00;;;;;;5093135;28;20062;-76
2022/10/31 15:46:10;;;;;;;17.60;10.07;;;23.10;69.10;;;;;;5092172;28;20051;-76
2022/10/31 15:48:38;;;;;;;16.70;10.13;;;23.00;68.90;;;;;;5093543;28;20429;-76
2022/10/31 15:51:04;;;;;;;15.45;10.15;;;23.10;69.00;;;;;;5093490;28;20024;-76
2022/10/31 15:53:48;;;;;;;19.02;10.38;;;23.10;69.00;;;;;;5091467;28;20032;-76
2022/10/31 15:56:25;;;;;;;19.95;10.60;;;23.10;69.00;;;;;;5111073;28;20031;-76
2022/10/31 15:58:53;;;;;;;19.52;10.80;;;23.10;69.10;;;;;;5113723;28;20555;-76
2022/10/31 16:01:28;;;;;;;19.70;10.35;;;23.10;69.10;;;;;;5106796;28;20062;-75
2022/10/31 16:04:12;;;;;;;19.55;10.48;;;23.10;69.10;;;;;;5093523;28;20023;-75
2022/10/31 16:06:38;;;;;;;17.58;9.73;;;23.00;68.90;;;;;;5110929;28;20492;-75
2022/10/31 16:09:21;;;;;;;18.63;10.15;;;23.00;68.90;;;;;;5113080;27;20011;-73
2022/10/31 16:11:47;;;;;;;21.45;10.77;;;23.10;69.00;;;;;;5077414;28;20098;-74
2022/10/31 16:14:21;;;;;;;15.05;9.88;;;23.00;68.90;;;;;;5112572;28;20054;-75
2022/10/31 16:16:52;;;;;;;17.83;10.65;;;23.10;69.00;;;;;;5110021;28;20035;-74
2022/10/31 16:19:50;;;;;;;18.33;10.43;;;23.00;68.90;;;;;;5094432;28;20027;-75
2022/10/31 16:22:24;;;;;;;22.20;11.40;;;23.10;68.90;;;;;;5036257;28;20042;-75
2022/10/31 16:24:56;;;;;;;29.13;11.20;;;23.00;69.20;;;;;;5099561;27;20023;-75
2022/10/31 16:27:26;;;;;;;30.80;12.27;;;23.10;69.40;;;;;;5091480;28;20057;-75
2022/10/31 16:29:53;;;;;;;26.00;13.30;;;23.10;69.70;;;;;;5092476;28;20032;-75
2022/10/31 16:32:36;;;;;;;29.52;13.60;;;23.10;70.50;;;;;;5103452;28;20435;-75
2022/10/31 16:35:08;;;;;;;31.58;13.73;;;23.20;71.40;;;;;;5110392;27;20452;-75
2022/10/31 16:37:33;;;;;;;37.88;14.07;;;23.20;70.70;;;;;;5092330;28;20526;-75
2022/10/31 16:39:59;;;;;;;29.55;13.55;;;23.20;71.20;;;;;;5092452;28;20027;-75
2022/10/31 16:42:38;;;;;;;29.67;14.90;;;23.10;71.50;;;;;;5092027;28;20082;-76
2022/10/31 16:45:06;;;;;;;32.63;14.77;;;23.10;71.10;;;;;;5094767;27;20412;-75
2022/10/31 16:47:31;;;;;;;32.17;14.05;;;23.10;71.90;;;;;;5102798;27;20477;-75
2022/10/31 16:49:59;;;;;;;34.92;14.50;;;23.10;72.10;;;;;;5089606;28;20103;-75
2022/10/31 16:52:26;;;;;;;26.98;14.38;;;23.10;71.50;;;;;;5090376;28;20044;-75
2022/10/31 16:54:51;;;;;;;26.70;13.20;;;23.10;71.50;;;;;;5092155;28;20486;-76
2022/10/31 16:57:23;;;;;;;23.17;13.00;;;23.00;71.60;;;;;;5092237;28;20035;-76
2022/10/31 16:59:53;;;;;;;26.35;12.60;;;23.00;71.90;;;;;;5092109;28;20028;-75
2022/10/31 17:02:19;;;;;;;24.98;13.45;;;23.10;71.10;;;;;;5091771;28;20453;-75
2022/10/31 17:04:45;;;;;;;24.58;12.23;;;23.00;71.60;;;;;;5092038;28;20431;-75
2022/10/31 17:07:11;;;;;;;25.80;12.45;;;23.00;71.40;;;;;;5091879;28;20020;-75
2022/10/31 17:09:37;;;;;;;21.80;12.25;;;23.00;71.70;;;;;;5092012;28;20389;-75
2022/10/31 17:12:05;;;;;;;23.80;12.38;;;23.00;71.60;;;;;;5090539;28;20040;-75
2022/10/31 17:14:32;;;;;;;26.00;12.50;;;23.00;71.60;;;;;;5091583;28;20098;-75
2022/10/31 17:16:57;;;;;;;23.50;12.38;;;23.00;71.70;;;;;;5091652;28;20024;-75
2022/10/31 17:19:23;;;;;;;23.60;12.25;;;23.00;71.70;;;;;;5091758;28;20028;-75
2022/10/31 17:21:49;;;;;;;25.00;11.93;;;23.00;71.50;;;;;;5091790;28;20024;-75
2022/10/31 17:24:15;;;;;;;21.85;11.93;;;22.90;71.50;;;;;;5091513;28;20473;-75
2022/10/31 17:26:41;;;;;;;23.88;11.88;;;23.00;71.40;;;;;;5090536;28;20024;-75
2022/10/31 17:29:06;;;;;;;24.25;11.15;;;22.90;71.70;;;;;;5092067;28;20020;-75
2022/10/31 17:31:35;;;;;;;20.83;11.18;;;23.00;71.90;;;;;;5091555;28;20036;-75
2022/10/31 17:34:03;;;;;;;21.63;11.55;;;22.90;71.80;;;;;;5091299;28;20024;-75
2022/10/31 17:36:31;;;;;;;20.05;11.05;;;23.00;72.30;;;;;;5090319;28;20449;-75
2022/10/31 17:38:56;;;;;;;22.27;11.50;;;22.90;71.60;;;;;;5090552;28;20130;-75
2022/10/31 17:41:22;;;;;;;20.02;12.20;;;22.90;72.10;;;;;;5090241;28;20126;-75
2022/10/31 17:43:48;;;;;;;18.42;11.40;;;22.90;71.80;;;;;;5073260;28;20024;-75
2022/10/31 17:46:14;;;;;;;20.05;11.10;;;22.90;71.70;;;;;;5091422;28;20135;-75
2022/10/31 17:48:40;;;;;;;19.90;11.45;;;22.90;71.50;;;;;;5090270;28;20477;-75
2022/10/31 17:51:06;;;;;;;20.63;11.85;;;23.00;71.60;;;;;;5096594;28;20561;-76
2022/10/31 17:53:33;;;;;;;27.77;12.48;;;23.00;71.80;;;;;;5092442;28;20038;-76
2022/10/31 17:56:05;;;;;;;30.27;12.68;;;23.00;71.70;;;;;;5108745;28;20072;-75
2022/10/31 17:58:31;;;;;;;22.83;11.70;;;23.00;72.90;;;;;;5099543;28;20555;-75
2022/10/31 18:01:00;;;;;;;24.30;12.23;;;23.00;72.30;;;;;;5058359;28;20035;-74
2022/10/31 18:03:26;;;;;;;53.33;22.75;;;23.00;72.50;;;;;;5099295;28;20468;-77
2022/10/31 18:05:59;;;;;;;47.85;15.70;;;23.10;72.60;;;;;;5111691;28;20024;-76
2022/10/31 18:08:31;;;;;;;35.63;16.02;;;23.10;72.40;;;;;;5086982;28;20019;-73
2022/10/31 18:10:59;;;;;;;23.75;13.50;;;23.10;72.60;;;;;;5109466;28;20039;-73
2022/10/31 18:13:26;;;;;;;39.92;20.27;;;23.00;72.40;;;;;;5110313;28;20212;-76
2022/10/31 18:15:52;;;;;;;60.63;40.22;;;23.00;72.70;;;;;;5100931;28;20080;-75
2022/10/31 18:18:18;;;;;;;45.08;28.77;;;22.90;69.60;;;;;;5091335;28;20039;-76
2022/10/31 18:20:44;;;;;;;56.30;34.83;;;22.90;70.50;;;;;;5088964;28;20035;-76
2022/10/31 18:23:11;;;;;;;62.45;32.30;;;22.80;68.20;;;;;;5111186;23;20044;-74
2022/10/31 18:25:38;;;;;;;47.40;32.50;;;22.70;68.40;;;;;;5035738;28;20050;-74
2022/10/31 18:28:05;;;;;;;54.92;30.95;;;22.60;66.60;;;;;;5063615;28;20547;-72
2022/10/31 18:30:31;;;;;;;47.03;29.48;;;22.70;68.10;;;;;;5068436;28;20071;-73
2022/10/31 18:32:57;;;;;;;52.30;28.67;;;22.70;68.50;;;;;;5072360;28;20119;-72
2022/10/31 18:35:23;;;;;;;51.30;28.25;;;22.70;68.80;;;;;;5072236;28;20163;-72
2022/10/31 18:37:48;;;;;;;54.25;27.75;;;22.80;68.90;;;;;;5071265;28;20031;-73
2022/10/31 18:40:15;;;;;;;43.30;26.70;;;22.90;69.20;;;;;;5071690;28;20032;-75
2022/10/31 18:42:41;;;;;;;46.45;25.80;;;22.80;69.00;;;;;;5056063;28;20043;-72
2022/10/31 18:45:07;;;;;;;41.28;23.85;;;22.80;69.10;;;;;;5073349;28;20033;-73
2022/10/31 18:47:32;;;;;;;44.28;24.17;;;22.90;69.20;;;;;;5056436;28;20043;-73
2022/10/31 18:49:58;;;;;;;47.45;23.65;;;22.90;69.50;;;;;;5074058;28;20025;-73
2022/10/31 18:52:24;;;;;;;41.05;23.77;;;22.90;69.30;;;;;;5055997;28;20036;-73
2022/10/31 18:54:50;;;;;;;38.70;22.80;;;22.90;69.30;;;;;;5074248;28;20482;-73
2022/10/31 18:57:15;;;;;;;36.90;22.52;;;22.90;69.50;;;;;;5056368;28;20075;-73
2022/10/31 18:59:41;;;;;;;38.20;21.52;;;22.90;69.70;;;;;;5056311;28;20035;-73
2022/10/31 19:02:10;;;;;;;39.35;22.52;;;22.90;69.80;;;;;;5056058;28;20919;-73
2022/10/31 19:04:36;;;;;;;33.40;21.85;;;22.90;70.00;;;;;;5074045;28;20024;-73
2022/10/31 19:07:02;;;;;;;36.75;20.30;;;22.90;70.00;;;;;;5039514;28;20513;-74
2022/10/31 19:09:29;;;;;;;34.22;20.05;;;22.90;69.90;;;;;;5074071;28;20505;-74
2022/10/31 19:11:55;;;;;;;33.80;20.17;;;22.90;69.80;;;;;;5039345;28;20037;-73
2022/10/31 19:14:21;;;;;;;33.50;21.00;;;22.90;69.80;;;;;;5073448;28;20405;-74
2022/10/31 19:16:47;;;;;;;31.98;19.60;;;22.90;69.90;;;;;;5056031;28;20028;-74
2022/10/31 19:19:12;;;;;;;31.38;19.17;;;22.90;69.90;;;;;;5073777;28;20031;-74
2022/10/31 19:21:38;;;;;;;29.52;19.90;;;22.90;70.20;;;;;;5055721;28;20510;-74
2022/10/31 19:24:04;;;;;;;33.10;19.02;;;22.90;70.70;;;;;;5055414;28;20028;-74
2022/10/31 19:26:32;;;;;;;28.50;18.98;;;22.90;69.80;;;;;;5073650;28;20027;-74
2022/10/31 19:28:58;;;;;;;27.08;17.63;;;22.90;70.10;;;;;;5073554;28;20481;-73
2022/10/31 19:31:24;;;;;;;27.30;17.85;;;22.90;70.10;;;;;;5073424;28;20102;-74
2022/10/31 19:33:50;;;;;;;26.40;16.85;;;22.90;70.10;;;;;;5073190;28;20047;-74
2022/10/31 19:36:18;;;;;;;27.98;18.30;;;22.90;70.30;;;;;;5073299;28;20187;-74
2022/10/31 19:38:45;;;;;;;23.92;17.20;;;22.90;70.30;;;;;;5073389;28;20082;-74
2022/10/31 19:41:23;;;;;;;24.45;17.23;;;22.90;70.40;;;;;;5073229;28;20025;-73
2022/10/31 19:43:49;;;;;;;27.30;17.13;;;22.90;70.50;;;;;;5054990;28;20064;-74
2022/10/31 19:46:17;;;;;;;24.92;16.65;;;22.90;70.50;;;;;;5073217;28;20020;-73
2022/10/31 19:48:43;;;;;;;25.10;16.27;;;22.90;70.20;;;;;;5073285;28;20090;-74
2022/10/31 19:51:12;;;;;;;28.42;16.45;;;22.90;70.30;;;;;;5073188;28;20485;-74
2022/10/31 19:53:38;;;;;;;23.67;15.88;;;22.90;70.90;;;;;;5054675;28;20524;-73
2022/10/31 19:56:13;;;;;;;24.13;16.70;;;22.90;70.30;;;;;;5055150;28;20378;-74
2022/10/31 19:58:40;;;;;;;23.33;15.85;;;22.90;70.40;;;;;;5054998;28;20036;-74
2022/10/31 20:01:10;;;;;;;25.80;16.30;;;22.90;70.50;;;;;;5021659;28;20037;-73
2022/10/31 20:03:38;;;;;;;26.63;16.10;;;22.90;70.50;;;;;;5073572;28;20032;-73
2022/10/31 20:06:05;;;;;;;26.58;16.40;;;22.90;70.00;;;;;;5074502;28;20016;-72
2022/10/31 20:08:32;;;;;;;25.65;15.05;;;22.90;70.60;;;;;;5056661;28;20025;-73
2022/10/31 20:11:01;;;;;;;24.58;15.75;;;22.90;70.20;;;;;;5056076;28;20031;-74
2022/10/31 20:13:28;;;;;;;26.02;15.48;;;22.90;70.40;;;;;;5038700;28;20035;-73
2022/10/31 20:15:59;;;;;;;23.20;14.80;;;22.90;70.60;;;;;;5055589;28;20393;-74
2022/10/31 20:18:25;;;;;;;20.48;15.15;;;22.90;70.50;;;;;;5039118;28;20036;-73
2022/10/31 20:20:52;;;;;;;22.58;14.75;;;22.90;70.50;;;;;;5038584;28;20643;-74
2022/10/31 20:23:18;;;;;;;20.98;14.63;;;22.90;70.60;;;;;;5072516;28;20025;-73
2022/10/31 20:25:48;;;;;;;23.63;15.82;;;22.90;70.70;;;;;;5073041;28;20025;-73
2022/10/31 20:28:14;;;;;;;;;;;22.90;70.60;;;;;;5073300;28;20126;-74
2022/10/31 20:30:40;;;;;;;21.48;14.32;;;22.90;70.50;;;;;;5037875;28;19950;-73
2022/10/31 20:33:05;;;;;;;21.05;14.38;;;22.90;70.60;;;;;;5037462;28;20029;-74
2022/10/31 20:35:35;;;;;;;21.75;15.05;;;22.90;70.60;;;;;;5072413;28;20125;-73
2022/10/31 20:38:03;;;;;;;21.52;15.05;;;22.90;70.50;;;;;;5072108;28;20029;-74
2022/10/31 20:40:30;;;;;;;21.75;14.00;;;22.90;70.80;;;;;;5072065;28;20039;-73
2022/10/31 20:42:56;;;;;;;19.77;14.88;;;22.90;70.70;;;;;;5053879;28;20033;-74
2022/10/31 20:45:23;;;;;;;18.77;13.65;;;22.90;70.70;;;;;;5071968;28;20044;-73
2022/10/31 20:47:48;;;;;;;22.73;14.18;;;22.90;70.90;;;;;;5071956;28;20107;-73
2022/10/31 20:50:15;;;;;;;19.38;13.68;;;22.90;70.90;;;;;;5071542;28;20459;-73
2022/10/31 20:52:41;;;;;;;19.60;13.13;;;22.90;70.70;;;;;;5071601;28;20032;-73
2022/10/31 20:55:07;;;;;;;19.25;13.68;;;22.90;70.60;;;;;;5054192;28;20486;-72
2022/10/31 20:57:33;;;;;;;20.58;14.48;;;22.90;70.60;;;;;;5054103;28;20037;-73
2022/10/31 20:59:59;;;;;;;21.27;14.15;;;22.90;70.60;;;;;;5054005;28;20032;-73
2022/10/31 21:02:25;;;;;;;20.77;13.80;;;22.90;70.60;;;;;;5053357;28;20033;-74
2022/10/31 21:04:51;;;;;;;18.40;13.48;;;22.90;70.60;;;;;;5053905;28;20032;-73
2022/10/31 21:07:17;;;;;;;22.60;13.07;;;22.90;70.60;;;;;;5071423;28;20054;-73
2022/10/31 21:09:42;;;;;;;18.30;13.20;;;22.90;70.50;;;;;;5071740;28;20134;-73
2022/10/31 21:12:08;;;;;;;17.83;13.20;;;22.90;70.50;;;;;;5071489;28;20132;-73
2022/10/31 21:14:35;;;;;;;19.38;12.88;;;22.90;71.10;;;;;;5071371;28;20036;-73
2022/10/31 21:17:02;;;;;;;18.10;13.13;;;22.90;70.80;;;;;;5053773;28;20059;-73
2022/10/31 21:19:28;;;;;;;18.00;13.27;;;22.90;70.20;;;;;;5053804;28;20036;-74
2022/10/31 21:21:54;;;;;;;17.08;13.07;;;22.90;71.20;;;;;;5070392;28;20393;-73
2022/10/31 21:24:20;;;;;;;20.23;13.40;;;22.90;70.80;;;;;;5063947;28;20409;-73
2022/10/31 21:26:49;;;;;;;21.73;14.45;;;22.90;70.50;;;;;;5033273;28;20481;-75
2022/10/31 21:29:16;;;;;;;20.73;13.23;;;22.90;71.00;;;;;;5048133;28;20032;-74
2022/10/31 21:31:43;;;;;;;20.77;13.07;;;22.90;70.90;;;;;;5055460;28;20016;-75
2022/10/31 21:34:09;;;;;;;18.38;12.90;;;22.90;72.10;;;;;;5075068;28;20033;-74
2022/10/31 21:36:35;;;;;;;19.95;13.18;;;22.90;72.40;;;;;;5055435;28;20035;-74
2022/10/31 21:39:01;;;;;;;22.15;13.15;;;22.90;72.50;;;;;;5051656;28;20028;-74
2022/10/31 21:41:27;;;;;;;23.23;12.98;;;23.00;71.70;;;;;;5051268;28;20040;-74
2022/10/31 21:43:54;;;;;;;29.15;14.18;;;23.00;71.70;;;;;;5073295;28;20028;-73
2022/10/31 21:46:23;;;;;;;29.20;15.63;;;23.00;71.30;;;;;;5019678;28;20796;-74
2022/10/31 21:48:48;;;;;;;30.67;15.27;;;23.00;71.00;;;;;;5053705;28;20024;-74
2022/10/31 21:51:20;;;;;;;25.40;14.50;;;23.00;70.70;;;;;;5054033;28;20044;-74
2022/10/31 21:56:30;;;;;;;21.35;13.18;;;22.90;71.10;;;;;;5068525;28;20029;-74
2022/10/31 21:58:57;;;;;;;26.85;13.30;;;22.90;70.70;;;;;;5069184;28;20058;-74
2022/10/31 22:01:25;;;;;;;20.88;12.85;;;22.90;71.60;;;;;;5053055;28;20024;-74
2022/10/31 22:03:50;;;;;;;25.50;12.65;;;22.90;70.70;;;;;;5073949;28;20117;-73
2022/10/31 22:06:17;;;;;;;21.27;13.68;;;22.90;71.70;;;;;;5075065;28;20064;-74
2022/10/31 22:08:42;;;;;;;18.20;12.50;;;22.90;70.70;;;;;;5075054;28;20024;-74
2022/10/31 22:11:12;;;;;;;18.42;13.35;;;22.90;70.70;;;;;;5074956;28;20024;-74
2022/10/31 22:13:38;;;;;;;19.17;12.38;;;22.90;70.90;;;;;;5074527;28;20028;-73
2022/10/31 22:16:10;;;;;;;19.45;12.93;;;22.90;70.70;;;;;;5057021;28;20066;-74
2022/10/31 22:18:37;;;;;;;20.85;12.98;;;22.90;70.90;;;;;;5074872;28;20036;-73
2022/10/31 22:21:05;;;;;;;24.15;13.15;;;22.90;70.70;;;;;;5057041;28;20464;-73
2022/10/31 22:23:31;;;;;;;22.90;12.25;;;22.90;71.30;;;;;;5056313;28;20032;-74
2022/10/31 22:26:13;;;;;;;16.60;12.30;;;22.90;70.90;;;;;;5056798;28;20561;-74
2022/10/31 22:28:43;;;;;;;18.20;11.70;;;22.80;70.70;;;;;;5074606;28;20025;-73
2022/10/31 22:31:11;;;;;;;15.45;10.75;;;22.80;70.60;;;;;;5074646;28;20070;-74
2022/10/31 22:33:37;;;;;;;33.38;13.57;;;22.90;70.80;;;;;;5023525;28;20034;-74
2022/10/31 22:36:08;;;;;;;21.70;12.70;;;22.90;73.20;;;;;;5081292;28;20036;-74
2022/10/31 22:38:39;;;;;;;24.23;12.35;;;22.90;71.30;;;;;;5089120;28;20024;-73
2022/10/31 22:41:09;;;;;;;18.45;12.43;;;22.90;71.60;;;;;;5047235;28;20164;-74
2022/10/31 22:43:35;;;;;;;;;;;23.00;71.70;;;;;;5036871;28;20028;-74
2022/10/31 22:46:05;;;;;;;27.25;14.35;;;23.00;72.10;;;;;;5044250;28;20293;-74
2022/10/31 22:48:34;;;;;;;22.35;14.52;;;23.00;72.80;;;;;;5042625;28;20027;-74
2022/10/31 22:51:20;;;;;;;24.08;13.60;;;23.10;73.20;;;;;;5059932;28;20039;-73
2022/10/31 22:54:04;;;;;;;19.63;13.73;;;23.10;72.10;;;;;;5078598;28;20132;-73
2022/10/31 22:56:32;;;;;;;24.75;16.90;;;23.10;73.00;;;;;;5042302;28;20025;-74
2022/10/31 22:58:59;;;;;;;32.17;19.13;;;23.20;77.10;;;;;;5058841;28;20048;-74
2022/10/31 23:01:27;;;;;;;27.35;17.85;;;23.30;76.10;;;;;;5082035;28;20099;-73
2022/10/31 23:03:53;;;;;;;27.48;20.33;;;23.40;75.30;;;;;;5073106;28;20108;-73
2022/10/31 23:06:21;;;;;;;29.00;19.02;;;23.40;76.30;;;;;;5059696;28;20115;-74
2022/10/31 23:08:48;;;;;;;24.02;18.10;;;23.30;76.30;;;;;;5056398;28;20044;-73
2022/10/31 23:11:22;;;;;;;22.17;17.98;;;23.30;75.40;;;;;;5065092;28;20105;-73
2022/10/31 23:14:07;;;;;;;25.58;18.55;;;23.30;75.30;;;;;;5081940;28;20024;-76
2022/10/31 23:16:35;;;;;;;22.00;17.02;;;23.20;74.50;;;;;;5059000;28;20073;-75
2022/10/31 23:19:02;;;;;;;25.98;18.60;;;23.20;74.40;;;;;;5045511;28;20113;-76
2022/10/31 23:21:53;;;;;;;25.15;18.80;;;23.20;74.20;;;;;;5043797;28;20477;-75
2022/10/31 23:24:36;;;;;;;26.25;18.35;;;23.20;74.30;;;;;;5056610;28;20032;-75
2022/10/31 23:27:14;;;;;;;28.80;19.05;;;23.20;74.00;;;;;;5042756;28;20235;-75
2022/10/31 23:29:56;;;;;;;21.70;17.30;;;23.20;73.70;;;;;;5064278;28;20033;-75
2022/10/31 23:32:36;;;;;;;22.60;18.42;;;23.20;73.50;;;;;;5053986;28;20032;-74
2022/10/31 23:35:09;;;;;;;27.27;18.90;;;23.20;73.50;;;;;;5087423;28;20023;-74
2022/10/31 23:37:37;;;;;;;33.47;19.77;;;23.20;73.60;;;;;;5077671;28;20032;-74
2022/10/31 23:40:04;;;;;;;23.65;18.90;;;23.10;73.50;;;;;;5073687;28;20028;-74
2022/10/31 23:42:30;;;;;;;24.42;19.63;;;23.10;73.50;;;;;;5063948;28;20073;-74
2022/10/31 23:44:56;;;;;;;25.45;19.38;;;23.10;73.50;;;;;;5059471;28;20028;-74
2022/10/31 23:47:22;;;;;;;25.88;18.48;;;23.10;73.40;;;;;;5038498;28;20028;-74
2022/10/31 23:49:49;;;;;;;22.58;18.73;;;23.10;73.50;;;;;;5077961;28;20716;-73
2022/10/31 23:52:15;;;;;;;25.38;20.58;;;23.10;73.30;;;;;;5074260;28;20519;-74
2022/10/31 23:54:41;;;;;;;26.10;20.05;;;23.20;73.30;;;;;;5055719;28;20025;-75
2022/10/31 23:57:09;;;;;;;27.45;19.75;;;23.20;73.20;;;;;;5060519;28;20048;-73
2022/10/31 23:59:35;;;;;;;27.70;19.50;;;23.20;73.10;;;;;;5040615;28;20453;-74
